sensor_id;sensor_type;location;lat;lon;timestamp;P1;durP1;ratioP1;P2;durP2;ratioP2
58992;SDS011;44782;0.000;0.000;2023-08-06T00:02:15;1.30;;;1.10;;
58992;SDS011;44782;0.000;0.000;2023-08-06T00:04:31;1.10;;;1.00;;
58992;SDS011;44782;0.000;0.000;2023-08-06T00:06:46;1.27;;;1.17;;
58992;SDS011;44782;0.000;0.000;2023-08-06T00:09:02;1.00;;;1.00;;
58992;SDS011;44782;0.000;0.000;2023-08-06T00:11:17;1.20;;;1.10;;
58992;SDS011;44782;0.000;0.000;2023-08-06T00:13:33;1.30;;;1.20;;
58992;SDS011;44782;0.000;0.000;2023-08-06T00:15:49;1.07;;;1.07;;
58992;SDS011;44782;0.000;0.000;2023-08-06T00:18:04;0.97;;;0.97;;
58992;SDS011;44782;0.000;0.000;2023-08-06T00:20:20;1.03;;;1.00;;
58992;SDS011;44782;0.000;0.000;2023-08-06T00:22:36;1.20;;;1.20;;
58992;SDS011;44782;0.000;0.000;2023-08-06T00:24:52;0.87;;;0.87;;
58992;SDS011;44782;0.000;0.000;2023-08-06T00:27:08;1.10;;;1.00;;
58992;SDS011;44782;0.000;0.000;2023-08-06T00:29:24;1.17;;;1.07;;
58992;SDS011;44782;0.000;0.000;2023-08-06T00:31:40;1.20;;;1.10;;
58992;SDS011;44782;0.000;0.000;2023-08-06T00:33:55;1.10;;;1.10;;
58992;SDS011;44782;0.000;0.000;2023-08-06T00:36:11;1.13;;;1.00;;
58992;SDS011;44782;0.000;0.000;2023-08-06T00:38:26;1.00;;;1.00;;
58992;SDS011;44782;0.000;0.000;2023-08-06T00:40:42;1.37;;;1.27;;
58992;SDS011;44782;0.000;0.000;2023-08-06T00:42:58;1.10;;;1.10;;
58992;SDS011;44782;0.000;0.000;2023-08-06T00:45:14;1.20;;;1.13;;
58992;SDS011;44782;0.000;0.000;2023-08-06T00:47:29;1.10;;;1.07;;
58992;SDS011;44782;0.000;0.000;2023-08-06T00:49:45;0.90;;;0.90;;
58992;SDS011;44782;0.000;0.000;2023-08-06T00:52:02;1.00;;;1.00;;
58992;SDS011;44782;0.000;0.000;2023-08-06T00:54:19;1.40;;;1.20;;
58992;SDS011;44782;0.000;0.000;2023-08-06T00:56:35;0.97;;;0.97;;
58992;SDS011;44782;0.000;0.000;2023-08-06T00:58:52;0.97;;;0.97;;
58992;SDS011;44782;0.000;0.000;2023-08-06T01:01:08;0.90;;;0.90;;
58992;SDS011;44782;0.000;0.000;2023-08-06T01:03:24;0.98;;;0.98;;
58992;SDS011;44782;0.000;0.000;2023-08-06T01:05:40;1.00;;;1.00;;
58992;SDS011;44782;0.000;0.000;2023-08-06T01:08:15;0.98;;;0.93;;
58992;SDS011;44782;0.000;0.000;2023-08-06T01:13:41;0.90;;;0.90;;
58992;SDS011;44782;0.000;0.000;2023-08-06T01:16:02;0.80;;;0.80;;
58992;SDS011;44782;0.000;0.000;2023-08-06T01:18:20;0.90;;;0.90;;
58992;SDS011;44782;0.000;0.000;2023-08-06T01:20:36;1.23;;;1.00;;
58992;SDS011;44782;0.000;0.000;2023-08-06T01:22:52;1.00;;;1.00;;
58992;SDS011;44782;0.000;0.000;2023-08-06T01:25:07;1.03;;;0.90;;
58992;SDS011;44782;0.000;0.000;2023-08-06T01:27:26;1.00;;;1.00;;
58992;SDS011;44782;0.000;0.000;2023-08-06T01:29:53;0.90;;;0.90;;
58992;SDS011;44782;0.000;0.000;2023-08-06T01:32:32;1.30;;;1.20;;
58992;SDS011;44782;0.000;0.000;2023-08-06T01:34:50;0.97;;;0.97;;
58992;SDS011;44782;0.000;0.000;2023-08-06T01:37:07;1.10;;;1.00;;
58992;SDS011;44782;0.000;0.000;2023-08-06T01:39:22;1.07;;;1.07;;
58992;SDS011;44782;0.000;0.000;2023-08-06T01:41:38;0.90;;;0.90;;
58992;SDS011;44782;0.000;0.000;2023-08-06T01:43:54;1.07;;;1.00;;
58992;SDS011;44782;0.000;0.000;2023-08-06T01:46:09;0.97;;;0.97;;
58992;SDS011;44782;0.000;0.000;2023-08-06T01:48:25;1.20;;;1.10;;
58992;SDS011;44782;0.000;0.000;2023-08-06T01:50:41;1.10;;;1.00;;
58992;SDS011;44782;0.000;0.000;2023-08-06T01:52:56;1.00;;;0.90;;
58992;SDS011;44782;0.000;0.000;2023-08-06T01:55:12;1.00;;;1.00;;
58992;SDS011;44782;0.000;0.000;2023-08-06T01:57:27;1.00;;;1.00;;
58992;SDS011;44782;0.000;0.000;2023-08-06T01:59:43;1.13;;;1.00;;
58992;SDS011;44782;0.000;0.000;2023-08-06T02:01:59;1.53;;;1.43;;
58992;SDS011;44782;0.000;0.000;2023-08-06T02:04:14;1.10;;;1.10;;
58992;SDS011;44782;0.000;0.000;2023-08-06T02:06:30;1.20;;;1.00;;
58992;SDS011;44782;0.000;0.000;2023-08-06T02:08:46;1.00;;;1.00;;
58992;SDS011;44782;0.000;0.000;2023-08-06T02:11:01;0.90;;;0.90;;
58992;SDS011;44782;0.000;0.000;2023-08-06T02:13:17;1.10;;;1.10;;
58992;SDS011;44782;0.000;0.000;2023-08-06T02:15:33;1.10;;;1.10;;
58992;SDS011;44782;0.000;0.000;2023-08-06T02:17:49;1.27;;;0.98;;
58992;SDS011;44782;0.000;0.000;2023-08-06T02:20:04;1.00;;;1.00;;
58992;SDS011;44782;0.000;0.000;2023-08-06T02:22:21;1.17;;;1.08;;
58992;SDS011;44782;0.000;0.000;2023-08-06T02:24:38;1.10;;;1.00;;
58992;SDS011;44782;0.000;0.000;2023-08-06T02:26:53;0.93;;;0.93;;
58992;SDS011;44782;0.000;0.000;2023-08-06T02:29:10;0.90;;;0.90;;
58992;SDS011;44782;0.000;0.000;2023-08-06T02:31:26;0.80;;;0.80;;
58992;SDS011;44782;0.000;0.000;2023-08-06T02:33:41;1.00;;;1.00;;
58992;SDS011;44782;0.000;0.000;2023-08-06T02:36:00;1.10;;;1.00;;
58992;SDS011;44782;0.000;0.000;2023-08-06T02:38:18;1.10;;;1.10;;
58992;SDS011;44782;0.000;0.000;2023-08-06T02:40:34;1.30;;;1.20;;
58992;SDS011;44782;0.000;0.000;2023-08-06T02:42:49;1.00;;;1.00;;
58992;SDS011;44782;0.000;0.000;2023-08-06T02:45:05;1.00;;;1.00;;
58992;SDS011;44782;0.000;0.000;2023-08-06T02:47:21;0.93;;;0.93;;
58992;SDS011;44782;0.000;0.000;2023-08-06T02:49:37;0.80;;;0.80;;
58992;SDS011;44782;0.000;0.000;2023-08-06T02:51:52;1.00;;;1.00;;
58992;SDS011;44782;0.000;0.000;2023-08-06T02:54:08;0.90;;;0.90;;
58992;SDS011;44782;0.000;0.000;2023-08-06T02:56:24;1.30;;;1.20;;
58992;SDS011;44782;0.000;0.000;2023-08-06T02:58:40;1.20;;;1.10;;
58992;SDS011;44782;0.000;0.000;2023-08-06T03:01:03;0.97;;;0.97;;
58992;SDS011;44782;0.000;0.000;2023-08-06T03:03:20;1.03;;;1.03;;
58992;SDS011;44782;0.000;0.000;2023-08-06T03:05:35;0.90;;;0.90;;
58992;SDS011;44782;0.000;0.000;2023-08-06T03:07:51;1.00;;;1.00;;
58992;SDS011;44782;0.000;0.000;2023-08-06T03:10:07;1.10;;;1.10;;
58992;SDS011;44782;0.000;0.000;2023-08-06T03:12:22;1.00;;;1.00;;
58992;SDS011;44782;0.000;0.000;2023-08-06T03:14:38;1.00;;;1.00;;
58992;SDS011;44782;0.000;0.000;2023-08-06T03:16:54;0.90;;;0.90;;
58992;SDS011;44782;0.000;0.000;2023-08-06T03:19:09;1.27;;;1.20;;
58992;SDS011;44782;0.000;0.000;2023-08-06T03:21:25;1.30;;;1.20;;
58992;SDS011;44782;0.000;0.000;2023-08-06T03:23:40;1.20;;;1.20;;
58992;SDS011;44782;0.000;0.000;2023-08-06T03:26:03;1.23;;;1.20;;
58992;SDS011;44782;0.000;0.000;2023-08-06T03:28:19;1.03;;;1.03;;
58992;SDS011;44782;0.000;0.000;2023-08-06T03:30:34;1.10;;;1.10;;
58992;SDS011;44782;0.000;0.000;2023-08-06T03:32:50;2.07;;;1.30;;
58992;SDS011;44782;0.000;0.000;2023-08-06T03:35:06;1.00;;;1.00;;
58992;SDS011;44782;0.000;0.000;2023-08-06T03:37:22;1.30;;;1.20;;
58992;SDS011;44782;0.000;0.000;2023-08-06T03:39:37;1.30;;;1.20;;
58992;SDS011;44782;0.000;0.000;2023-08-06T03:41:53;1.40;;;1.30;;
58992;SDS011;44782;0.000;0.000;2023-08-06T03:44:09;1.10;;;1.10;;
58992;SDS011;44782;0.000;0.000;2023-08-06T03:46:24;1.10;;;1.10;;
58992;SDS011;44782;0.000;0.000;2023-08-06T03:48:40;1.43;;;1.30;;
58992;SDS011;44782;0.000;0.000;2023-08-06T03:50:56;1.40;;;1.30;;
58992;SDS011;44782;0.000;0.000;2023-08-06T03:53:12;1.30;;;1.20;;
58992;SDS011;44782;0.000;0.000;2023-08-06T03:55:28;1.10;;;1.10;;
58992;SDS011;44782;0.000;0.000;2023-08-06T03:57:43;1.23;;;1.20;;
58992;SDS011;44782;0.000;0.000;2023-08-06T03:59:59;1.40;;;1.30;;
58992;SDS011;44782;0.000;0.000;2023-08-06T04:02:15;1.30;;;1.20;;
58992;SDS011;44782;0.000;0.000;2023-08-06T04:04:30;1.30;;;1.20;;
58992;SDS011;44782;0.000;0.000;2023-08-06T04:06:46;1.37;;;1.30;;
58992;SDS011;44782;0.000;0.000;2023-08-06T04:09:01;1.20;;;1.20;;
58992;SDS011;44782;0.000;0.000;2023-08-06T04:11:17;1.40;;;1.30;;
58992;SDS011;44782;0.000;0.000;2023-08-06T04:13:33;1.73;;;1.50;;
58992;SDS011;44782;0.000;0.000;2023-08-06T04:15:49;2.13;;;1.30;;
58992;SDS011;44782;0.000;0.000;2023-08-06T04:18:04;1.50;;;1.40;;
58992;SDS011;44782;0.000;0.000;2023-08-06T04:20:20;1.50;;;1.20;;
58992;SDS011;44782;0.000;0.000;2023-08-06T04:22:35;1.60;;;1.50;;
58992;SDS011;44782;0.000;0.000;2023-08-06T04:24:51;1.37;;;1.27;;
58992;SDS011;44782;0.000;0.000;2023-08-06T04:27:07;1.60;;;1.50;;
58992;SDS011;44782;0.000;0.000;2023-08-06T04:29:24;1.70;;;1.40;;
58992;SDS011;44782;0.000;0.000;2023-08-06T04:31:40;1.43;;;1.33;;
58992;SDS011;44782;0.000;0.000;2023-08-06T04:33:55;1.60;;;1.50;;
58992;SDS011;44782;0.000;0.000;2023-08-06T04:36:11;1.40;;;1.30;;
58992;SDS011;44782;0.000;0.000;2023-08-06T04:38:27;1.53;;;1.43;;
58992;SDS011;44782;0.000;0.000;2023-08-06T04:40:43;1.50;;;1.40;;
58992;SDS011;44782;0.000;0.000;2023-08-06T04:42:58;1.60;;;1.50;;
58992;SDS011;44782;0.000;0.000;2023-08-06T04:45:15;1.60;;;1.50;;
58992;SDS011;44782;0.000;0.000;2023-08-06T04:47:31;1.40;;;1.30;;
58992;SDS011;44782;0.000;0.000;2023-08-06T04:49:47;1.50;;;1.40;;
58992;SDS011;44782;0.000;0.000;2023-08-06T04:52:02;1.40;;;1.30;;
58992;SDS011;44782;0.000;0.000;2023-08-06T04:54:18;1.30;;;1.20;;
58992;SDS011;44782;0.000;0.000;2023-08-06T04:56:34;1.60;;;1.50;;
58992;SDS011;44782;0.000;0.000;2023-08-06T04:58:49;1.70;;;1.60;;
58992;SDS011;44782;0.000;0.000;2023-08-06T05:01:05;1.63;;;1.50;;
58992;SDS011;44782;0.000;0.000;2023-08-06T05:03:21;1.63;;;1.53;;
58992;SDS011;44782;0.000;0.000;2023-08-06T05:05:39;1.80;;;1.70;;
58992;SDS011;44782;0.000;0.000;2023-08-06T05:07:56;1.30;;;1.20;;
58992;SDS011;44782;0.000;0.000;2023-08-06T05:10:12;1.60;;;1.50;;
58992;SDS011;44782;0.000;0.000;2023-08-06T05:12:28;1.50;;;1.40;;
58992;SDS011;44782;0.000;0.000;2023-08-06T05:14:43;1.73;;;1.63;;
58992;SDS011;44782;0.000;0.000;2023-08-06T05:16:59;1.50;;;1.40;;
58992;SDS011;44782;0.000;0.000;2023-08-06T05:19:17;1.80;;;1.70;;
58992;SDS011;44782;0.000;0.000;2023-08-06T05:21:32;1.70;;;1.60;;
58992;SDS011;44782;0.000;0.000;2023-08-06T05:23:48;1.70;;;1.60;;
58992;SDS011;44782;0.000;0.000;2023-08-06T05:26:04;1.40;;;1.30;;
58992;SDS011;44782;0.000;0.000;2023-08-06T05:28:19;1.47;;;1.37;;
58992;SDS011;44782;0.000;0.000;2023-08-06T05:30:38;1.70;;;1.60;;
58992;SDS011;44782;0.000;0.000;2023-08-06T05:32:54;1.60;;;1.50;;
58992;SDS011;44782;0.000;0.000;2023-08-06T05:35:10;1.70;;;1.60;;
58992;SDS011;44782;0.000;0.000;2023-08-06T05:37:26;1.80;;;1.70;;
58992;SDS011;44782;0.000;0.000;2023-08-06T05:39:41;2.10;;;1.67;;
58992;SDS011;44782;0.000;0.000;2023-08-06T05:41:57;1.80;;;1.67;;
58992;SDS011;44782;0.000;0.000;2023-08-06T05:44:12;1.70;;;1.60;;
58992;SDS011;44782;0.000;0.000;2023-08-06T05:46:28;1.60;;;1.50;;
58992;SDS011;44782;0.000;0.000;2023-08-06T05:48:44;1.70;;;1.60;;
58992;SDS011;44782;0.000;0.000;2023-08-06T05:50:59;1.83;;;1.73;;
58992;SDS011;44782;0.000;0.000;2023-08-06T05:53:15;1.50;;;1.40;;
58992;SDS011;44782;0.000;0.000;2023-08-06T05:55:30;1.60;;;1.50;;
58992;SDS011;44782;0.000;0.000;2023-08-06T05:57:47;1.60;;;1.50;;
58992;SDS011;44782;0.000;0.000;2023-08-06T06:00:03;1.60;;;1.50;;
58992;SDS011;44782;0.000;0.000;2023-08-06T06:02:21;1.60;;;1.50;;
58992;SDS011;44782;0.000;0.000;2023-08-06T06:04:36;1.60;;;1.50;;
58992;SDS011;44782;0.000;0.000;2023-08-06T06:06:52;2.03;;;1.67;;
58992;SDS011;44782;0.000;0.000;2023-08-06T06:09:08;1.60;;;1.50;;
58992;SDS011;44782;0.000;0.000;2023-08-06T06:11:23;1.43;;;1.33;;
58992;SDS011;44782;0.000;0.000;2023-08-06T06:13:39;1.70;;;1.60;;
58992;SDS011;44782;0.000;0.000;2023-08-06T06:15:54;1.60;;;1.50;;
58992;SDS011;44782;0.000;0.000;2023-08-06T06:18:11;1.83;;;1.70;;
58992;SDS011;44782;0.000;0.000;2023-08-06T06:20:26;1.90;;;1.80;;
58992;SDS011;44782;0.000;0.000;2023-08-06T06:22:42;1.80;;;1.70;;
58992;SDS011;44782;0.000;0.000;2023-08-06T06:24:58;1.80;;;1.70;;
58992;SDS011;44782;0.000;0.000;2023-08-06T06:27:13;2.20;;;2.00;;
58992;SDS011;44782;0.000;0.000;2023-08-06T06:29:29;1.80;;;1.70;;
58992;SDS011;44782;0.000;0.000;2023-08-06T06:31:44;1.67;;;1.57;;
58992;SDS011;44782;0.000;0.000;2023-08-06T06:34:00;1.60;;;1.50;;
58992;SDS011;44782;0.000;0.000;2023-08-06T06:36:16;1.60;;;1.50;;
58992;SDS011;44782;0.000;0.000;2023-08-06T06:38:31;1.70;;;1.60;;
58992;SDS011;44782;0.000;0.000;2023-08-06T06:40:56;1.60;;;1.50;;
58992;SDS011;44782;0.000;0.000;2023-08-06T06:43:12;1.63;;;1.53;;
58992;SDS011;44782;0.000;0.000;2023-08-06T06:45:28;1.63;;;1.53;;
58992;SDS011;44782;0.000;0.000;2023-08-06T06:47:44;1.73;;;1.63;;
58992;SDS011;44782;0.000;0.000;2023-08-06T06:49:59;1.70;;;1.60;;
58992;SDS011;44782;0.000;0.000;2023-08-06T06:52:15;1.70;;;1.60;;
58992;SDS011;44782;0.000;0.000;2023-08-06T06:54:30;1.60;;;1.50;;
58992;SDS011;44782;0.000;0.000;2023-08-06T06:56:46;1.60;;;1.50;;
58992;SDS011;44782;0.000;0.000;2023-08-06T06:59:02;1.80;;;1.70;;
58992;SDS011;44782;0.000;0.000;2023-08-06T07:01:17;1.77;;;1.67;;
58992;SDS011;44782;0.000;0.000;2023-08-06T07:03:33;1.50;;;1.40;;
58992;SDS011;44782;0.000;0.000;2023-08-06T07:05:49;1.80;;;1.70;;
58992;SDS011;44782;0.000;0.000;2023-08-06T07:08:05;1.63;;;1.53;;
58992;SDS011;44782;0.000;0.000;2023-08-06T07:10:20;1.60;;;1.50;;
58992;SDS011;44782;0.000;0.000;2023-08-06T07:12:36;1.50;;;1.40;;
58992;SDS011;44782;0.000;0.000;2023-08-06T07:14:52;1.70;;;1.60;;
58992;SDS011;44782;0.000;0.000;2023-08-06T07:17:07;1.80;;;1.70;;
58992;SDS011;44782;0.000;0.000;2023-08-06T07:19:23;1.50;;;1.40;;
58992;SDS011;44782;0.000;0.000;2023-08-06T07:21:39;1.70;;;1.50;;
58992;SDS011;44782;0.000;0.000;2023-08-06T07:23:54;1.80;;;1.70;;
58992;SDS011;44782;0.000;0.000;2023-08-06T07:26:10;1.70;;;1.60;;
58992;SDS011;44782;0.000;0.000;2023-08-06T07:28:26;1.60;;;1.50;;
58992;SDS011;44782;0.000;0.000;2023-08-06T07:30:42;1.80;;;1.70;;
58992;SDS011;44782;0.000;0.000;2023-08-06T07:32:59;1.70;;;1.60;;
58992;SDS011;44782;0.000;0.000;2023-08-06T07:35:14;1.40;;;1.30;;
58992;SDS011;44782;0.000;0.000;2023-08-06T07:37:30;1.60;;;1.50;;
58992;SDS011;44782;0.000;0.000;2023-08-06T07:39:45;1.70;;;1.50;;
58992;SDS011;44782;0.000;0.000;2023-08-06T07:42:01;1.40;;;1.30;;
58992;SDS011;44782;0.000;0.000;2023-08-06T07:44:19;1.50;;;1.40;;
58992;SDS011;44782;0.000;0.000;2023-08-06T07:46:35;1.70;;;1.60;;
58992;SDS011;44782;0.000;0.000;2023-08-06T07:48:50;1.73;;;1.63;;
58992;SDS011;44782;0.000;0.000;2023-08-06T07:51:06;1.50;;;1.40;;
58992;SDS011;44782;0.000;0.000;2023-08-06T07:53:22;1.80;;;1.70;;
58992;SDS011;44782;0.000;0.000;2023-08-06T07:55:41;1.57;;;1.47;;
58992;SDS011;44782;0.000;0.000;2023-08-06T07:57:57;1.60;;;1.50;;
58992;SDS011;44782;0.000;0.000;2023-08-06T08:00:12;1.80;;;1.70;;
58992;SDS011;44782;0.000;0.000;2023-08-06T08:02:28;1.80;;;1.70;;
58992;SDS011;44782;0.000;0.000;2023-08-06T08:04:45;1.60;;;1.40;;
58992;SDS011;44782;0.000;0.000;2023-08-06T08:07:02;1.60;;;1.50;;
58992;SDS011;44782;0.000;0.000;2023-08-06T08:09:18;1.70;;;1.60;;
58992;SDS011;44782;0.000;0.000;2023-08-06T08:11:33;1.60;;;1.50;;
58992;SDS011;44782;0.000;0.000;2023-08-06T08:13:49;1.60;;;1.50;;
58992;SDS011;44782;0.000;0.000;2023-08-06T08:16:05;1.60;;;1.50;;
58992;SDS011;44782;0.000;0.000;2023-08-06T08:18:25;1.80;;;1.70;;
58992;SDS011;44782;0.000;0.000;2023-08-06T08:20:40;1.53;;;1.40;;
58992;SDS011;44782;0.000;0.000;2023-08-06T08:22:56;1.60;;;1.50;;
58992;SDS011;44782;0.000;0.000;2023-08-06T08:25:13;1.30;;;1.30;;
58992;SDS011;44782;0.000;0.000;2023-08-06T08:27:29;1.50;;;1.40;;
58992;SDS011;44782;0.000;0.000;2023-08-06T08:29:45;1.70;;;1.60;;
58992;SDS011;44782;0.000;0.000;2023-08-06T08:32:00;1.70;;;1.60;;
58992;SDS011;44782;0.000;0.000;2023-08-06T08:34:16;1.80;;;1.50;;
58992;SDS011;44782;0.000;0.000;2023-08-06T08:36:32;1.60;;;1.50;;
58992;SDS011;44782;0.000;0.000;2023-08-06T08:38:48;1.57;;;1.47;;
58992;SDS011;44782;0.000;0.000;2023-08-06T08:41:05;1.83;;;1.73;;
58992;SDS011;44782;0.000;0.000;2023-08-06T08:43:21;1.70;;;1.60;;
58992;SDS011;44782;0.000;0.000;2023-08-06T08:45:39;1.63;;;1.53;;
58992;SDS011;44782;0.000;0.000;2023-08-06T08:47:55;1.77;;;1.60;;
58992;SDS011;44782;0.000;0.000;2023-08-06T08:50:11;1.73;;;1.63;;
58992;SDS011;44782;0.000;0.000;2023-08-06T08:52:28;1.70;;;1.60;;
58992;SDS011;44782;0.000;0.000;2023-08-06T08:54:45;1.90;;;1.80;;
58992;SDS011;44782;0.000;0.000;2023-08-06T08:57:02;1.90;;;1.80;;
58992;SDS011;44782;0.000;0.000;2023-08-06T08:59:17;1.70;;;1.60;;
58992;SDS011;44782;0.000;0.000;2023-08-06T09:01:33;1.70;;;1.60;;
58992;SDS011;44782;0.000;0.000;2023-08-06T09:03:50;1.67;;;1.57;;
58992;SDS011;44782;0.000;0.000;2023-08-06T09:06:07;1.80;;;1.70;;
58992;SDS011;44782;0.000;0.000;2023-08-06T09:08:27;1.73;;;1.63;;
58992;SDS011;44782;0.000;0.000;2023-08-06T09:10:48;1.87;;;1.70;;
58992;SDS011;44782;0.000;0.000;2023-08-06T09:13:04;2.37;;;1.83;;
58992;SDS011;44782;0.000;0.000;2023-08-06T09:15:24;1.70;;;1.60;;
58992;SDS011;44782;0.000;0.000;2023-08-06T09:17:40;1.40;;;1.30;;
58992;SDS011;44782;0.000;0.000;2023-08-06T09:19:56;1.73;;;1.63;;
58992;SDS011;44782;0.000;0.000;2023-08-06T09:22:12;1.67;;;1.58;;
58992;SDS011;44782;0.000;0.000;2023-08-06T09:24:28;1.70;;;1.60;;
58992;SDS011;44782;0.000;0.000;2023-08-06T09:26:44;1.55;;;1.45;;
58992;SDS011;44782;0.000;0.000;2023-08-06T09:29:00;1.53;;;1.43;;
58992;SDS011;44782;0.000;0.000;2023-08-06T09:31:16;1.50;;;1.40;;
58992;SDS011;44782;0.000;0.000;2023-08-06T09:33:31;1.63;;;1.52;;
58992;SDS011;44782;0.000;0.000;2023-08-06T09:35:47;1.63;;;1.52;;
58992;SDS011;44782;0.000;0.000;2023-08-06T09:38:06;1.80;;;1.70;;
58992;SDS011;44782;0.000;0.000;2023-08-06T09:40:27;1.90;;;1.60;;
58992;SDS011;44782;0.000;0.000;2023-08-06T09:42:46;1.77;;;1.67;;
58992;SDS011;44782;0.000;0.000;2023-08-06T09:45:05;1.83;;;1.60;;
58992;SDS011;44782;0.000;0.000;2023-08-06T09:47:21;1.77;;;1.67;;
58992;SDS011;44782;0.000;0.000;2023-08-06T09:52:00;1.70;;;1.60;;
58992;SDS011;44782;0.000;0.000;2023-08-06T09:54:16;1.70;;;1.60;;
58992;SDS011;44782;0.000;0.000;2023-08-06T09:56:34;1.58;;;1.48;;
58992;SDS011;44782;0.000;0.000;2023-08-06T09:58:52;1.60;;;1.50;;
58992;SDS011;44782;0.000;0.000;2023-08-06T10:01:09;1.60;;;1.50;;
58992;SDS011;44782;0.000;0.000;2023-08-06T10:03:27;2.03;;;1.60;;
58992;SDS011;44782;0.000;0.000;2023-08-06T10:05:44;1.85;;;1.75;;
58992;SDS011;44782;0.000;0.000;2023-08-06T10:08:00;1.70;;;1.60;;
58992;SDS011;44782;0.000;0.000;2023-08-06T10:10:17;1.65;;;1.55;;
58992;SDS011;44782;0.000;0.000;2023-08-06T10:12:36;1.70;;;1.60;;
58992;SDS011;44782;0.000;0.000;2023-08-06T10:14:55;1.60;;;1.50;;
58992;SDS011;44782;0.000;0.000;2023-08-06T10:17:13;1.87;;;1.77;;
58992;SDS011;44782;0.000;0.000;2023-08-06T10:19:29;1.70;;;1.60;;
58992;SDS011;44782;0.000;0.000;2023-08-06T10:24:27;1.60;;;1.50;;
58992;SDS011;44782;0.000;0.000;2023-08-06T10:27:00;1.70;;;1.60;;
58992;SDS011;44782;0.000;0.000;2023-08-06T10:29:34;1.67;;;1.58;;
58992;SDS011;44782;0.000;0.000;2023-08-06T10:31:54;1.50;;;1.40;;
58992;SDS011;44782;0.000;0.000;2023-08-06T10:34:13;1.60;;;1.42;;
58992;SDS011;44782;0.000;0.000;2023-08-06T10:36:32;1.70;;;1.55;;
58992;SDS011;44782;0.000;0.000;2023-08-06T10:38:48;1.70;;;1.60;;
58992;SDS011;44782;0.000;0.000;2023-08-06T10:41:05;1.52;;;1.42;;
58992;SDS011;44782;0.000;0.000;2023-08-06T10:43:33;1.40;;;1.30;;
58992;SDS011;44782;0.000;0.000;2023-08-06T10:45:50;1.60;;;1.50;;
58992;SDS011;44782;0.000;0.000;2023-08-06T10:48:06;1.80;;;1.70;;
58992;SDS011;44782;0.000;0.000;2023-08-06T10:50:22;1.50;;;1.40;;
58992;SDS011;44782;0.000;0.000;2023-08-06T10:52:38;1.40;;;1.30;;
58992;SDS011;44782;0.000;0.000;2023-08-06T10:54:54;1.60;;;1.50;;
58992;SDS011;44782;0.000;0.000;2023-08-06T10:57:10;1.53;;;1.43;;
58992;SDS011;44782;0.000;0.000;2023-08-06T10:59:26;1.70;;;1.60;;
58992;SDS011;44782;0.000;0.000;2023-08-06T11:01:41;1.50;;;1.40;;
58992;SDS011;44782;0.000;0.000;2023-08-06T11:03:57;1.58;;;1.48;;
58992;SDS011;44782;0.000;0.000;2023-08-06T11:06:17;1.60;;;1.50;;
58992;SDS011;44782;0.000;0.000;2023-08-06T11:08:35;1.40;;;1.30;;
58992;SDS011;44782;0.000;0.000;2023-08-06T11:10:51;1.70;;;1.60;;
58992;SDS011;44782;0.000;0.000;2023-08-06T11:13:07;1.45;;;1.35;;
58992;SDS011;44782;0.000;0.000;2023-08-06T11:15:23;1.50;;;1.40;;
58992;SDS011;44782;0.000;0.000;2023-08-06T11:17:39;1.50;;;1.40;;
58992;SDS011;44782;0.000;0.000;2023-08-06T11:19:59;1.50;;;1.40;;
58992;SDS011;44782;0.000;0.000;2023-08-06T11:22:15;1.50;;;1.40;;
58992;SDS011;44782;0.000;0.000;2023-08-06T11:24:31;1.60;;;1.50;;
58992;SDS011;44782;0.000;0.000;2023-08-06T11:26:46;1.60;;;1.50;;
58992;SDS011;44782;0.000;0.000;2023-08-06T11:29:02;1.75;;;1.45;;
58992;SDS011;44782;0.000;0.000;2023-08-06T11:31:19;1.58;;;1.48;;
58992;SDS011;44782;0.000;0.000;2023-08-06T11:33:35;1.40;;;1.30;;
58992;SDS011;44782;0.000;0.000;2023-08-06T11:35:51;1.30;;;1.30;;
58992;SDS011;44782;0.000;0.000;2023-08-06T11:38:07;1.60;;;1.50;;
58992;SDS011;44782;0.000;0.000;2023-08-06T11:40:24;1.60;;;1.50;;
58992;SDS011;44782;0.000;0.000;2023-08-06T11:42:39;1.40;;;1.30;;
58992;SDS011;44782;0.000;0.000;2023-08-06T11:44:56;1.50;;;1.40;;
58992;SDS011;44782;0.000;0.000;2023-08-06T11:47:13;1.60;;;1.50;;
58992;SDS011;44782;0.000;0.000;2023-08-06T11:52:07;1.50;;;1.40;;
58992;SDS011;44782;0.000;0.000;2023-08-06T11:54:31;1.50;;;1.40;;
58992;SDS011;44782;0.000;0.000;2023-08-06T11:56:49;1.50;;;1.40;;
58992;SDS011;44782;0.000;0.000;2023-08-06T11:59:04;1.63;;;1.53;;
58992;SDS011;44782;0.000;0.000;2023-08-06T12:01:23;1.60;;;1.50;;
58992;SDS011;44782;0.000;0.000;2023-08-06T12:03:39;1.50;;;1.40;;
58992;SDS011;44782;0.000;0.000;2023-08-06T12:05:55;1.60;;;1.50;;
58992;SDS011;44782;0.000;0.000;2023-08-06T12:08:11;1.30;;;1.30;;
58992;SDS011;44782;0.000;0.000;2023-08-06T12:10:30;1.40;;;1.30;;
58992;SDS011;44782;0.000;0.000;2023-08-06T12:12:46;1.60;;;1.50;;
58992;SDS011;44782;0.000;0.000;2023-08-06T12:15:02;1.45;;;1.35;;
58992;SDS011;44782;0.000;0.000;2023-08-06T12:17:19;1.40;;;1.30;;
58992;SDS011;44782;0.000;0.000;2023-08-06T12:19:34;1.60;;;1.50;;
58992;SDS011;44782;0.000;0.000;2023-08-06T12:21:50;1.60;;;1.40;;
58992;SDS011;44782;0.000;0.000;2023-08-06T12:24:06;1.38;;;1.30;;
58992;SDS011;44782;0.000;0.000;2023-08-06T12:26:22;1.52;;;1.42;;
58992;SDS011;44782;0.000;0.000;2023-08-06T12:28:38;1.52;;;1.40;;
58992;SDS011;44782;0.000;0.000;2023-08-06T12:30:53;1.40;;;1.30;;
58992;SDS011;44782;0.000;0.000;2023-08-06T12:33:10;1.52;;;1.42;;
58992;SDS011;44782;0.000;0.000;2023-08-06T12:35:25;1.43;;;1.33;;
58992;SDS011;44782;0.000;0.000;2023-08-06T12:37:41;1.60;;;1.50;;
58992;SDS011;44782;0.000;0.000;2023-08-06T12:39:58;1.40;;;1.30;;
58992;SDS011;44782;0.000;0.000;2023-08-06T12:42:15;1.50;;;1.40;;
58992;SDS011;44782;0.000;0.000;2023-08-06T12:44:31;1.60;;;1.50;;
58992;SDS011;44782;0.000;0.000;2023-08-06T12:46:47;1.40;;;1.30;;
58992;SDS011;44782;0.000;0.000;2023-08-06T12:49:03;1.50;;;1.40;;
58992;SDS011;44782;0.000;0.000;2023-08-06T12:51:18;1.55;;;1.45;;
58992;SDS011;44782;0.000;0.000;2023-08-06T12:53:34;1.50;;;1.40;;
58992;SDS011;44782;0.000;0.000;2023-08-06T12:55:50;1.50;;;1.40;;
58992;SDS011;44782;0.000;0.000;2023-08-06T12:58:06;1.80;;;1.40;;
58992;SDS011;44782;0.000;0.000;2023-08-06T13:00:22;1.53;;;1.43;;
58992;SDS011;44782;0.000;0.000;2023-08-06T13:02:37;1.23;;;1.20;;
58992;SDS011;44782;0.000;0.000;2023-08-06T13:04:53;1.30;;;1.30;;
58992;SDS011;44782;0.000;0.000;2023-08-06T13:07:08;1.70;;;1.60;;
58992;SDS011;44782;0.000;0.000;2023-08-06T13:09:24;1.40;;;1.30;;
58992;SDS011;44782;0.000;0.000;2023-08-06T13:11:41;1.70;;;1.60;;
58992;SDS011;44782;0.000;0.000;2023-08-06T13:14:07;1.57;;;1.47;;
58992;SDS011;44782;0.000;0.000;2023-08-06T13:16:24;1.60;;;1.50;;
58992;SDS011;44782;0.000;0.000;2023-08-06T13:18:40;1.63;;;1.53;;
58992;SDS011;44782;0.000;0.000;2023-08-06T13:20:55;1.60;;;1.50;;
58992;SDS011;44782;0.000;0.000;2023-08-06T13:23:11;1.60;;;1.50;;
58992;SDS011;44782;0.000;0.000;2023-08-06T13:25:30;1.90;;;1.80;;
58992;SDS011;44782;0.000;0.000;2023-08-06T13:27:51;1.83;;;1.65;;
58992;SDS011;44782;0.000;0.000;2023-08-06T13:30:07;1.90;;;1.80;;
58992;SDS011;44782;0.000;0.000;2023-08-06T13:32:23;1.80;;;1.70;;
58992;SDS011;44782;0.000;0.000;2023-08-06T13:34:39;2.03;;;1.93;;
58992;SDS011;44782;0.000;0.000;2023-08-06T13:36:54;2.00;;;1.90;;
58992;SDS011;44782;0.000;0.000;2023-08-06T13:39:10;1.90;;;1.80;;
58992;SDS011;44782;0.000;0.000;2023-08-06T13:41:26;1.90;;;1.80;;
58992;SDS011;44782;0.000;0.000;2023-08-06T13:43:42;2.00;;;1.90;;
58992;SDS011;44782;0.000;0.000;2023-08-06T13:45:59;1.65;;;1.55;;
58992;SDS011;44782;0.000;0.000;2023-08-06T13:48:14;1.90;;;1.80;;
58992;SDS011;44782;0.000;0.000;2023-08-06T13:50:30;1.95;;;1.85;;
58992;SDS011;44782;0.000;0.000;2023-08-06T13:52:45;1.80;;;1.70;;
58992;SDS011;44782;0.000;0.000;2023-08-06T13:55:01;1.77;;;1.67;;
58992;SDS011;44782;0.000;0.000;2023-08-06T13:57:18;2.20;;;2.00;;
58992;SDS011;44782;0.000;0.000;2023-08-06T13:59:34;1.80;;;1.70;;
58992;SDS011;44782;0.000;0.000;2023-08-06T14:01:50;2.00;;;1.90;;
58992;SDS011;44782;0.000;0.000;2023-08-06T14:04:08;1.80;;;1.70;;
58992;SDS011;44782;0.000;0.000;2023-08-06T14:06:23;1.60;;;1.50;;